createdAt,value
2018-05-04T00:02:08.794Z,7.60
2018-05-04T00:05:12.033Z,7.60
2018-05-04T00:08:15.506Z,7.60
2018-05-04T00:11:18.908Z,7.60
2018-05-04T00:14:22.682Z,7.60
2018-05-04T00:17:28.686Z,7.60
2018-05-04T00:20:32.810Z,7.40
2018-05-04T00:23:36.550Z,7.40
2018-05-04T00:26:41.374Z,7.60
2018-05-04T00:29:44.744Z,7.40
2018-05-04T00:32:48.478Z,7.20
2018-05-04T00:35:52.034Z,7.10
2018-05-04T00:38:55.328Z,7.10
2018-05-04T00:41:58.674Z,7.00
2018-05-04T00:45:03.309Z,6.90
2018-05-04T00:48:06.695Z,6.90
2018-05-04T00:51:10.482Z,7.20
2018-05-04T00:54:23.839Z,6.90
2018-05-04T00:57:28.491Z,6.90
2018-05-04T01:00:34.538Z,6.90
2018-05-04T01:03:37.920Z,6.80
2018-05-04T01:06:41.332Z,6.80
2018-05-04T01:09:44.668Z,6.70
2018-05-04T01:12:49.691Z,7.10
2018-05-04T01:15:56.272Z,7.30
2018-05-04T01:18:59.713Z,7.30
2018-05-04T01:22:03.109Z,7.30
2018-05-04T01:25:10.729Z,7.30
2018-05-04T01:28:14.221Z,7.30
2018-05-04T01:31:20.310Z,7.20
2018-05-04T01:34:25.619Z,7.20
2018-05-04T01:37:33.522Z,7.20
2018-05-04T01:40:38.263Z,7.20
2018-05-04T01:43:42.130Z,7.30
2018-05-04T01:46:46.300Z,7.10
2018-05-04T01:49:52.924Z,6.90
2018-05-04T01:52:56.297Z,6.90
2018-05-04T01:55:59.680Z,6.90
2018-05-04T01:59:05.046Z,7.00
2018-05-04T02:02:10.824Z,7.00
2018-05-04T02:05:15.302Z,6.90
2018-05-04T02:08:19.574Z,6.90
2018-05-04T02:11:22.924Z,7.10
2018-05-04T02:14:29.191Z,7.00
2018-05-04T02:17:33.798Z,6.90
2018-05-04T02:20:38.690Z,6.90
2018-05-04T02:23:54.540Z,7.20
2018-05-04T02:27:03.110Z,7.20
2018-05-04T02:30:09.580Z,7.10
2018-05-04T02:33:13.741Z,6.80
2018-05-04T02:36:22.582Z,6.70
2018-05-04T02:39:30.046Z,6.70
2018-05-04T02:42:35.655Z,6.50
2018-05-04T02:45:40.726Z,6.40
2018-05-04T02:48:44.153Z,6.40
2018-05-04T02:51:55.446Z,6.50
2018-05-04T02:55:00.647Z,6.50
2018-05-04T02:58:10.169Z,6.70
2018-05-04T03:01:19.134Z,6.50
2018-05-04T03:04:37.559Z,6.40
2018-05-04T03:07:43.688Z,6.50
2018-05-04T03:10:52.676Z,6.50
2018-05-04T03:13:56.183Z,6.60
2018-05-04T03:17:00.286Z,6.50
2018-05-04T03:20:04.688Z,6.50
2018-05-04T03:23:09.140Z,6.30
2018-05-04T03:26:14.285Z,6.30
2018-05-04T03:29:18.219Z,6.30
2018-05-04T03:32:23.146Z,6.20
2018-05-04T03:35:27.373Z,6.40
2018-05-04T03:38:32.048Z,6.40
2018-05-04T03:41:40.320Z,6.40
2018-05-04T03:44:43.714Z,6.30
2018-05-04T03:47:46.975Z,6.40
2018-05-04T03:50:50.479Z,6.50
2018-05-04T03:53:54.552Z,6.60
2018-05-04T03:57:09.692Z,6.60
2018-05-04T04:00:25.539Z,6.50
2018-05-04T04:03:41.736Z,6.50
2018-05-04T04:06:45.935Z,6.30
2018-05-04T04:09:49.347Z,6.30
2018-05-04T04:12:53.775Z,6.40
2018-05-04T04:15:57.445Z,6.40
2018-05-04T04:19:00.896Z,6.40
2018-05-04T04:22:04.335Z,6.50
2018-05-04T04:25:08.154Z,6.50
2018-05-04T04:28:13.883Z,6.60
2018-05-04T04:31:25.024Z,6.70
2018-05-04T04:34:40.958Z,6.80
2018-05-04T04:37:45.174Z,6.80
2018-05-04T04:40:48.600Z,6.90
2018-05-04T04:43:52.228Z,7.00
2018-05-04T04:46:55.808Z,7.00
2018-05-04T04:50:03.796Z,7.00
2018-05-04T04:53:08.415Z,7.30
2018-05-04T04:56:11.667Z,7.30
2018-05-04T04:59:17.606Z,7.20
2018-05-04T05:02:26.428Z,7.20
2018-05-04T05:05:33.078Z,7.30
2018-05-04T05:08:37.224Z,7.50
2018-05-04T05:11:42.567Z,7.80
2018-05-04T05:14:45.925Z,8.20
2018-05-04T05:17:50.164Z,8.40
2018-05-04T05:20:54.626Z,8.30
2018-05-04T05:23:57.877Z,8.40
2018-05-04T05:27:01.987Z,8.60
2018-05-04T05:30:05.286Z,8.50
2018-05-04T05:33:10.028Z,8.60
2018-05-04T05:36:13.397Z,8.70
2018-05-04T05:39:17.541Z,8.60
2018-05-04T05:42:22.100Z,8.50
2018-05-04T05:45:25.727Z,8.50
2018-05-04T05:48:29.903Z,8.60
2018-05-04T05:51:34.288Z,8.80
2018-05-04T05:54:38.708Z,8.90
2018-05-04T05:57:43.179Z,9.20
2018-05-04T06:00:46.522Z,9.20
2018-05-04T06:03:49.863Z,9.40
2018-05-04T06:06:54.530Z,9.60
2018-05-04T06:09:59.974Z,9.90
2018-05-04T06:13:04.940Z,10.60
2018-05-04T06:16:08.453Z,10.60
2018-05-04T06:19:11.795Z,11.00
2018-05-04T06:22:16.065Z,11.50
2018-05-04T06:25:20.259Z,13.60
2018-05-04T06:28:27.924Z,16.10
2018-05-04T06:31:31.202Z,16.10
2018-05-04T06:34:35.657Z,17.20
2018-05-04T06:37:39.019Z,17.40
2018-05-04T06:40:42.896Z,18.60
2018-05-04T06:43:47.013Z,19.80
2018-05-04T06:46:50.357Z,19.80
2018-05-04T06:49:53.939Z,19.10
2018-05-04T06:52:57.434Z,20.00
2018-05-04T06:56:01.472Z,20.90
2018-05-04T06:59:04.839Z,20.90
2018-05-04T07:02:08.930Z,21.80
2018-05-04T07:05:12.394Z,21.70
2018-05-04T07:08:15.651Z,21.60
2018-05-04T07:11:19.024Z,21.50
2018-05-04T07:14:25.448Z,21.60
2018-05-04T07:17:30.227Z,21.40
2018-05-04T07:20:33.494Z,20.50
2018-05-04T07:23:38.560Z,19.10
2018-05-04T07:26:43.066Z,19.40
2018-05-04T07:29:46.308Z,18.60
2018-05-04T07:32:49.591Z,19.70
2018-05-04T07:35:52.743Z,20.20
2018-05-04T07:38:56.078Z,19.30
2018-05-04T07:41:59.771Z,18.70
2018-05-04T07:45:04.289Z,19.00
2018-05-04T07:48:07.481Z,18.70
2018-05-04T07:51:14.648Z,19.30
2018-05-04T07:54:17.932Z,20.00
2018-05-04T07:57:22.425Z,20.80
2018-05-04T08:00:26.208Z,20.70
2018-05-04T08:03:29.545Z,20.00
2018-05-04T08:06:35.132Z,20.50
2018-05-04T08:09:40.290Z,20.40
2018-05-04T08:12:43.633Z,20.40
2018-05-04T08:15:47.730Z,20.20
2018-05-04T08:18:51.070Z,20.10
2018-05-04T08:21:55.211Z,20.20
2018-05-04T08:24:58.536Z,20.20
2018-05-04T08:28:02.450Z,20.80
2018-05-04T08:31:06.637Z,19.80
2018-05-04T08:34:10.106Z,19.70
2018-05-04T08:37:13.518Z,19.50
2018-05-04T08:40:16.933Z,19.60
2018-05-04T08:43:20.954Z,19.70
2018-05-04T08:46:25.625Z,19.70
2018-05-04T08:49:28.959Z,20.00
2018-05-04T08:52:32.344Z,19.80
2018-05-04T08:55:35.937Z,20.50
2018-05-04T08:58:39.320Z,20.20
2018-05-04T09:01:43.732Z,20.60
2018-05-04T09:04:47.216Z,20.50
2018-05-04T09:07:50.450Z,22.30
2018-05-04T09:10:53.658Z,21.00
2018-05-04T09:13:57.005Z,20.50
2018-05-04T09:17:01.604Z,20.20
2018-05-04T09:20:05.748Z,18.80
2018-05-04T09:23:10.237Z,18.80
2018-05-04T09:26:14.466Z,20.20
2018-05-04T09:29:18.533Z,21.10
2018-05-04T09:32:22.532Z,20.30
2018-05-04T09:35:27.524Z,20.30
2018-05-04T09:38:32.468Z,20.10
2018-05-04T09:41:37.924Z,19.10
2018-05-04T09:44:41.290Z,19.70
2018-05-04T09:47:45.314Z,20.10
2018-05-04T09:50:48.611Z,20.10
2018-05-04T09:53:53.973Z,19.10
2018-05-04T09:56:57.302Z,20.00
2018-05-04T10:00:01.389Z,19.40
2018-05-04T10:03:04.807Z,19.40
2018-05-04T10:06:09.088Z,19.20
2018-05-04T10:09:12.667Z,19.20
2018-05-04T10:12:16.687Z,19.20
2018-05-04T10:15:20.037Z,19.20
2018-05-04T10:18:23.271Z,20.10
2018-05-04T10:21:26.479Z,20.50
2018-05-04T10:24:29.688Z,19.40
2018-05-04T10:27:32.908Z,18.90
2018-05-04T10:30:36.539Z,19.70
2018-05-04T10:33:42.159Z,19.20
2018-05-04T10:36:46.835Z,18.50
2018-05-04T10:39:50.626Z,19.00
2018-05-04T10:42:54.851Z,20.00
2018-05-04T10:45:59.155Z,20.20
2018-05-04T10:49:02.460Z,20.20
2018-05-04T10:52:05.701Z,20.80
2018-05-04T10:55:09.917Z,21.00
2018-05-04T10:58:13.954Z,19.30
2018-05-04T11:01:18.157Z,19.50
2018-05-04T11:04:24.009Z,19.10
2018-05-04T11:07:27.202Z,19.10
2018-05-04T11:10:31.217Z,18.90
2018-05-04T11:13:34.653Z,19.30
2018-05-04T11:16:37.980Z,19.10
2018-05-04T11:19:41.289Z,18.50
2018-05-04T11:22:45.749Z,18.20
2018-05-04T11:25:49.847Z,18.20
2018-05-04T11:28:53.982Z,17.60
2018-05-04T11:31:58.547Z,18.00
2018-05-04T11:35:01.994Z,17.30
2018-05-04T11:38:05.310Z,17.20
2018-05-04T11:41:08.614Z,17.10
2018-05-04T11:44:13.070Z,16.50
2018-05-04T11:47:16.927Z,16.10
2018-05-04T11:50:20.292Z,16.10
2018-05-04T11:53:24.260Z,15.90
2018-05-04T11:56:27.512Z,16.00
2018-05-04T11:59:31.491Z,16.10
2018-05-04T12:02:35.446Z,16.10
2018-05-04T12:05:39.434Z,16.10
2018-05-04T12:08:43.014Z,16.00
2018-05-04T12:11:48.930Z,15.80
2018-05-04T12:14:53.054Z,15.80
2018-05-04T12:17:56.342Z,15.80
2018-05-04T12:20:59.709Z,15.90
2018-05-04T12:24:03.847Z,16.10
2018-05-04T12:27:08.949Z,16.10
2018-05-04T12:30:12.458Z,15.90
2018-05-04T12:33:16.066Z,16.10
2018-05-04T12:36:20.690Z,16.00
2018-05-04T12:39:24.051Z,16.00
2018-05-04T12:42:27.418Z,16.10
2018-05-04T12:45:31.928Z,16.00
2018-05-04T12:48:35.215Z,16.00
2018-05-04T12:51:38.517Z,15.90
2018-05-04T12:54:42.436Z,15.90
2018-05-04T12:57:46.563Z,16.20
2018-05-04T13:00:49.852Z,16.20
2018-05-04T13:03:53.195Z,16.50
2018-05-04T13:06:57.993Z,16.30
2018-05-04T13:10:01.264Z,16.20
2018-05-04T13:13:09.744Z,16.20
2018-05-04T13:16:13.170Z,16.20
2018-05-04T13:19:16.447Z,16.30
2018-05-04T13:22:21.069Z,16.30
2018-05-04T13:25:45.491Z,16.40
2018-05-04T13:28:49.725Z,16.30
2018-05-04T13:31:54.023Z,16.30
2018-05-04T13:38:06.611Z,16.40
2018-05-04T13:41:10.532Z,16.40
2018-05-04T13:44:13.797Z,16.30
2018-05-04T13:50:43.966Z,16.40
2018-05-04T13:53:47.372Z,16.60
2018-05-04T13:56:51.650Z,16.70
2018-05-04T13:59:55.976Z,16.70
2018-05-04T14:03:05.615Z,16.60
2018-05-04T14:06:08.929Z,16.60
2018-05-04T14:09:19.087Z,16.70
2018-05-04T14:12:33.414Z,16.70
2018-05-04T14:15:50.569Z,16.70
2018-05-04T14:18:57.102Z,16.70
2018-05-04T14:25:40.553Z,16.70
2018-05-04T14:28:50.031Z,16.80
2018-05-04T14:31:59.112Z,16.80
2018-05-04T14:41:52.502Z,16.90
2018-05-04T14:45:05.621Z,16.80
2018-05-04T14:48:09.639Z,16.80
2018-05-04T14:57:36.318Z,16.90
2018-05-04T15:00:45.605Z,16.80
2018-05-04T15:03:49.396Z,16.80
2018-05-04T15:07:03.379Z,16.60
2018-05-04T15:10:10.748Z,16.70
2018-05-04T15:13:16.327Z,16.70
2018-05-04T15:16:33.217Z,16.60
2018-05-04T15:19:42.281Z,16.70
2018-05-04T15:22:52.092Z,16.70
2018-05-04T15:25:57.143Z,16.60
2018-05-04T15:29:03.757Z,16.60
2018-05-04T15:32:17.570Z,16.60
2018-05-04T15:35:24.239Z,16.50
2018-05-04T15:38:41.027Z,16.60
2018-05-04T15:41:44.247Z,16.50
2018-05-04T15:44:47.718Z,16.40
2018-05-04T15:47:53.284Z,16.40
2018-05-04T15:57:52.981Z,16.50
2018-05-04T16:00:58.618Z,16.40
2018-05-04T16:04:03.561Z,16.40
2018-05-04T16:07:09.431Z,16.40
2018-05-04T16:10:49.293Z,16.50
2018-05-04T16:13:52.551Z,16.40
2018-05-04T16:17:05.355Z,16.50
2018-05-04T16:20:08.611Z,16.50
2018-05-04T16:23:14.509Z,16.40
2018-05-04T16:26:20.315Z,16.50
2018-05-04T16:29:33.112Z,16.40
2018-05-04T16:32:41.253Z,16.40
2018-05-04T16:35:45.620Z,16.40
2018-05-04T16:38:52.859Z,16.40
2018-05-04T16:41:59.298Z,16.20
2018-05-04T16:45:10.409Z,16.10
2018-05-04T16:48:23.607Z,16.10
2018-05-04T16:51:28.262Z,16.10
2018-05-04T16:54:32.550Z,16.30
2018-05-04T16:57:38.547Z,16.30
2018-05-04T17:00:45.580Z,16.20
2018-05-04T17:04:06.209Z,16.20
2018-05-04T17:07:12.956Z,16.20
2018-05-04T17:13:44.048Z,15.90
2018-05-04T17:17:09.092Z,15.90
2018-05-04T17:20:12.861Z,16.00
2018-05-04T17:23:18.646Z,16.00
2018-05-04T17:26:27.593Z,15.90
2018-05-04T17:32:53.634Z,15.80
2018-05-04T17:35:58.058Z,15.80
2018-05-04T17:39:05.086Z,15.70
2018-05-04T17:42:08.380Z,15.70
2018-05-04T17:45:17.620Z,15.70
2018-05-04T17:48:21.058Z,15.50
2018-05-04T17:51:36.595Z,15.40
2018-05-04T17:54:55.112Z,15.50
2018-05-04T17:58:04.468Z,15.50
2018-05-04T18:01:07.869Z,15.40
2018-05-04T18:04:22.306Z,15.30
2018-05-04T18:07:40.479Z,15.30
2018-05-04T18:10:47.628Z,15.20
2018-05-04T18:13:51.194Z,15.20
2018-05-04T18:16:57.258Z,15.10
2018-05-04T18:20:00.723Z,15.00
2018-05-04T18:23:07.568Z,14.90
2018-05-04T18:26:23.263Z,14.90
2018-05-04T18:29:39.033Z,14.80
2018-05-04T18:32:44.420Z,14.70
2018-05-04T18:35:49.901Z,14.60
2018-05-04T18:38:54.625Z,14.50
2018-05-04T18:42:00.120Z,14.30
2018-05-04T18:45:11.729Z,14.30
2018-05-04T18:48:15.559Z,14.20
2018-05-04T18:51:19.040Z,14.20
2018-05-04T18:54:22.421Z,14.20
2018-05-04T18:57:27.355Z,14.10
2018-05-04T19:00:39.576Z,14.00
2018-05-04T19:04:01.807Z,14.00
2018-05-04T19:07:10.840Z,13.90
2018-05-04T19:10:15.113Z,13.80
2018-05-04T19:13:25.100Z,13.80
2018-05-04T19:16:30.165Z,13.70
2018-05-04T19:19:34.983Z,13.60
2018-05-04T19:22:39.297Z,13.50
2018-05-04T19:28:55.468Z,13.50
2018-05-04T19:32:08.400Z,13.50
2018-05-04T19:38:25.030Z,13.30
2018-05-04T19:41:30.381Z,13.10
2018-05-04T19:44:44.536Z,13.10
2018-05-04T19:47:51.529Z,13.00
2018-05-04T19:50:55.604Z,13.00
2018-05-04T19:54:09.083Z,12.90
2018-05-04T19:57:13.050Z,12.60
2018-05-04T20:00:26.144Z,12.60
2018-05-04T20:17:35.292Z,11.90
2018-05-04T20:20:38.767Z,11.90
2018-05-04T20:23:45.333Z,11.70
2018-05-04T20:26:51.789Z,11.70
2018-05-04T20:29:59.933Z,11.60
2018-05-04T20:33:03.890Z,11.60
2018-05-04T20:36:07.511Z,11.60
2018-05-04T20:39:11.577Z,11.50
2018-05-04T20:45:38.527Z,11.40
2018-05-04T20:48:41.999Z,11.30
2018-05-04T20:55:14.872Z,11.30
2018-05-04T20:58:35.286Z,11.20
2018-05-04T21:01:38.706Z,11.20
2018-05-04T21:04:42.081Z,11.20
2018-05-04T21:07:50.244Z,11.10
2018-05-04T21:10:53.680Z,11.00
2018-05-04T21:14:07.703Z,11.00
2018-05-04T21:17:11.106Z,11.00
2018-05-04T21:20:14.341Z,11.00
2018-05-04T21:23:18.145Z,11.00
2018-05-04T21:33:08.623Z,10.70
2018-05-04T21:36:11.877Z,10.80
2018-05-04T21:39:33.289Z,10.70
2018-05-04T21:42:37.572Z,10.70
2018-05-04T21:45:40.859Z,10.70
2018-05-04T21:48:45.031Z,10.70
2018-05-04T21:55:07.240Z,10.60
2018-05-04T21:58:10.679Z,10.60
2018-05-04T22:01:14.921Z,10.50
2018-05-04T22:04:26.841Z,10.40
2018-05-04T22:07:36.213Z,10.40
2018-05-04T22:10:39.643Z,10.30
2018-05-04T22:13:44.275Z,10.20
2018-05-04T22:16:50.689Z,10.20
2018-05-04T22:20:11.743Z,10.10
2018-05-04T22:23:15.102Z,10.10
2018-05-04T22:26:25.419Z,10.10
2018-05-04T22:29:29.585Z,10.00
2018-05-04T22:32:33.818Z,10.00
2018-05-04T22:35:37.021Z,10.00
2018-05-04T22:38:40.230Z,9.90
2018-05-04T22:41:43.843Z,9.90
2018-05-04T22:44:50.416Z,9.70
2018-05-04T22:47:56.721Z,9.60
2018-05-04T22:51:00.010Z,9.40
2018-05-04T22:54:03.379Z,9.30
2018-05-04T23:03:59.529Z,9.20
2018-05-04T23:07:02.713Z,9.10
2018-05-04T23:10:05.979Z,9.20
2018-05-04T23:13:09.997Z,9.20
2018-05-04T23:16:17.191Z,9.30
2018-05-04T23:19:20.442Z,9.20
2018-05-04T23:22:28.722Z,9.40
2018-05-04T23:25:31.913Z,9.40
2018-05-04T23:28:36.180Z,9.30
2018-05-04T23:31:39.686Z,9.30
2018-05-04T23:34:44.173Z,9.20
2018-05-04T23:37:52.067Z,9.40
2018-05-04T23:40:56.126Z,9.40
2018-05-04T23:43:59.528Z,9.40
2018-05-04T23:47:03.526Z,9.20
2018-05-04T23:50:06.991Z,9.20
2018-05-04T23:53:10.282Z,9.20
2018-05-04T23:56:14.506Z,9.20
2018-05-04T23:59:23.003Z,9.20
